Hagen — V2PB3 — position and weather

sailwx.info

Track history (hours):
 
Tides and Currents Weather Stations Pressure Air Temp Water Temp Dewpoint Dewpoint Depression Visibility Wind Speed Wind Dir Waves Ship Positions

Hagen

Last reported at 2014-Oct-02 13:33 UTC. Time now 2014-Oct-02 14:27 UTC.
Position N 51°05' E 003°44'.

Length 89 m; draft 5.7 m.

Type: Cargo ship. MMSI: 304010898.

Date/timePositionNaut miles runAvg speedWind from/ knotsBaromVisibWave heightAir tempDewpointWater temp
2014-Oct-02 13:33N 51°05' E 003°44'0 0.0
2014-Oct-02 12:33N 51°05' E 003°44'0 0.0
2014-Oct-02 11:33N 51°05' E 003°44'0 0.0
2014-Oct-02 10:33N 51°05' E 003°44'0 0.0
2014-Oct-02 09:33N 51°05' E 003°44'0 0.0
2014-Oct-02 08:33N 51°05' E 003°44'0 0.0
2014-Oct-02 07:33N 51°05' E 003°44'0 0.0
2014-Oct-02 06:33N 51°05' E 003°44'0 0.0
2014-Oct-02 05:34N 51°05' E 003°44'0 0.0
2014-Oct-02 04:33N 51°05' E 003°44'0 0.0
2014-Oct-02 03:33N 51°05' E 003°44'0 0.0
2014-Oct-02 02:33N 51°05' E 003°44'0 0.0
2014-Oct-02 01:34N 51°05' E 003°44'0 0.0
2014-Oct-02 00:33N 51°05' E 003°44'0 0.0
2014-Oct-01 23:33N 51°05' E 003°44'0 0.0
2014-Oct-01 22:34N 51°05' E 003°44'0 0.0
2014-Oct-01 21:33N 51°05' E 003°44'0 0.0
2014-Oct-01 20:33N 51°05' E 003°44'0 0.0
2014-Oct-01 19:34N 51°05' E 003°44'0 0.0
2014-Oct-01 18:34N 51°05' E 003°44'0 0.0
2014-Oct-01 17:33N 51°05' E 003°44'0 0.0
2014-Oct-01 16:33N 51°05' E 003°44'0 0.0
2014-Oct-01 15:34N 51°05' E 003°44'0 0.0
2014-Oct-01 14:33N 51°05' E 003°44'0 0.1
2014-Oct-01 13:33N 51°05' E 003°44'0 0.0
2014-Oct-01 12:34N 51°05' E 003°44'0 0.0
2014-Oct-01 11:33N 51°05' E 003°44'0 0.0
2014-Oct-01 10:33N 51°05' E 003°44'0 0.0
2014-Oct-01 09:33N 51°05' E 003°44'0 0.0
2014-Oct-01 08:33N 51°05' E 003°44'0 0.0
2014-Oct-01 07:33N 51°05' E 003°44'0 0.0
2014-Oct-01 06:33N 51°05' E 003°44'0 0.0
2014-Oct-01 05:33N 51°05' E 003°44'0 0.0
2014-Oct-01 04:34N 51°05' E 003°44'0 0.0
2014-Oct-01 03:34N 51°05' E 003°44'0 0.0
2014-Oct-01 02:33N 51°05' E 003°44'0 0.0
2014-Oct-01 01:33N 51°05' E 003°44'0 0.0
2014-Oct-01 00:33N 51°05' E 003°44'0 0.0
2014-Sep-30 23:33N 51°05' E 003°44'0 0.0
2014-Sep-30 22:34N 51°05' E 003°44'0 0.0
2014-Sep-30 21:34N 51°05' E 003°44'0 0.0
2014-Sep-30 20:33N 51°05' E 003°44'0 0.0
2014-Sep-30 19:33N 51°05' E 003°44'0 0.0
2014-Sep-30 18:34N 51°05' E 003°44'0 0.0
2014-Sep-30 17:34N 51°05' E 003°44'0 0.0
2014-Sep-30 16:33N 51°05' E 003°44'0 0.0
2014-Sep-30 15:33N 51°05' E 003°44'0 0.0
2014-Sep-30 14:33N 51°05' E 003°44'0 0.4
2014-Sep-30 13:33N 51°05' E 003°44'8 8.3
2014-Sep-30 12:33N 51°13' E 003°48'7 6.6
2014-Sep-30 11:34N 51°20' E 003°49'2 1.8
2014-Sep-30 10:33N 51°21' E 003°47'8 7.6
2014-Sep-30 09:33N 51°25' E 003°37'7 7.1
2014-Sep-30 08:33N 51°25' E 003°26'8 7.7
2014-Sep-30 07:32N 51°24' E 003°13'9 9.4
2014-Sep-30 06:33N 51°23' E 002°58'1010.1
2014-Sep-30 05:33N 51°22' E 002°42'4 4.0
2014-Sep-30 04:34N 51°22' E 002°36'11 9.4
2014-Sep-30 03:24N 51°19' E 002°19'5 6.5
2014-Sep-30 02:33N 51°16' E 002°12'9 7.6
2014-Sep-30 01:23N 51°12' E 001°59'6 7.7
2014-Sep-30 00:33N 51°09' E 001°50'7 7.2
2014-Sep-29 23:33N 51°04' E 001°41'9 6.8
2014-Sep-29 22:11N 50°57' E 001°32'35 7.2
2014-Sep-29 17:19N 50°30' E 000°57'7 8.6
2014-Sep-29 16:30N 50°28' E 000°46'8 8.6
2014-Sep-29 15:33N 50°26' E 000°34'9 8.9
2014-Sep-29 14:30N 50°23' E 000°19'9110.1
2014-Sep-29 05:32N 49°59' W 001°57'14 6.1
2014-Sep-29 03:12N 49°55' W 002°18'187 9.4
2014-Sep-28 07:24N 48°05' W 006°08'1910.2
2014-Sep-28 05:33N 47°48' W 006°20'1110.7
2014-Sep-28 04:30N 47°38' W 006°28'  
2014-Sep-25 16:26N 39°02' W 009°52'25 8.4
2014-Sep-25 13:28N 38°37' W 009°50'42 8.5
2014-Sep-25 08:27N 37°56' W 009°38'8 8.7
2014-Sep-25 07:33N 37°48' W 009°35'9 8.9
2014-Sep-25 06:33N 37°40' W 009°33'9 8.9
2014-Sep-25 05:33N 37°31' W 009°30'9 8.8
2014-Sep-25 04:33N 37°22' W 009°28'10 8.7
2014-Sep-25 03:27N 37°13' W 009°25'207 7.9
2014-Sep-24 01:17N 36°00' W 005°24'5 6.8
2014-Sep-24 00:33N 35°57' W 005°19'3 2.7
2014-Sep-23 23:32N 35°54' W 005°19'0 0.0
2014-Sep-23 22:32N 35°54' W 005°19'0 0.0
2014-Sep-23 21:32N 35°54' W 005°19'0 0.0
2014-Sep-23 20:32N 35°54' W 005°19'0 0.0
2014-Sep-23 19:32N 35°54' W 005°19'0 0.5
2014-Sep-23 18:33N 35°54' W 005°19'  
Track history (hours):
 
Tides and Currents Weather Stations Pressure Air Temp Water Temp Dewpoint Dewpoint Depression Visibility Wind Speed Wind Dir Waves Ship Positions

Hagen

Last reported at 2014-Oct-02 13:33 UTC. Time now 2014-Oct-02 14:27 UTC.
Position N 51°05' E 003°44'.

Length 89 m; draft 5.7 m.

Type: Cargo ship. MMSI: 304010898.

Date/timePositionNaut miles runAvg speedWind from/ knotsBaromVisibWave heightAir tempDewpointWater temp
2014-Oct-02 13:33N 51°05' E 003°44'0 0.0
2014-Oct-02 12:33N 51°05' E 003°44'0 0.0
2014-Oct-02 11:33N 51°05' E 003°44'0 0.0
2014-Oct-02 10:33N 51°05' E 003°44'0 0.0
2014-Oct-02 09:33N 51°05' E 003°44'0 0.0
2014-Oct-02 08:33N 51°05' E 003°44'0 0.0
2014-Oct-02 07:33N 51°05' E 003°44'0 0.0
2014-Oct-02 06:33N 51°05' E 003°44'0 0.0
2014-Oct-02 05:34N 51°05' E 003°44'0 0.0
2014-Oct-02 04:33N 51°05' E 003°44'0 0.0
2014-Oct-02 03:33N 51°05' E 003°44'0 0.0
2014-Oct-02 02:33N 51°05' E 003°44'0 0.0
2014-Oct-02 01:34N 51°05' E 003°44'0 0.0
2014-Oct-02 00:33N 51°05' E 003°44'0 0.0
2014-Oct-01 23:33N 51°05' E 003°44'0 0.0
2014-Oct-01 22:34N 51°05' E 003°44'0 0.0
2014-Oct-01 21:33N 51°05' E 003°44'0 0.0
2014-Oct-01 20:33N 51°05' E 003°44'0 0.0
2014-Oct-01 19:34N 51°05' E 003°44'0 0.0
2014-Oct-01 18:34N 51°05' E 003°44'0 0.0
2014-Oct-01 17:33N 51°05' E 003°44'0 0.0
2014-Oct-01 16:33N 51°05' E 003°44'0 0.0
2014-Oct-01 15:34N 51°05' E 003°44'0 0.0
2014-Oct-01 14:33N 51°05' E 003°44'0 0.1
2014-Oct-01 13:33N 51°05' E 003°44'0 0.0
2014-Oct-01 12:34N 51°05' E 003°44'0 0.0
2014-Oct-01 11:33N 51°05' E 003°44'0 0.0
2014-Oct-01 10:33N 51°05' E 003°44'0 0.0
2014-Oct-01 09:33N 51°05' E 003°44'0 0.0
2014-Oct-01 08:33N 51°05' E 003°44'0 0.0
2014-Oct-01 07:33N 51°05' E 003°44'0 0.0
2014-Oct-01 06:33N 51°05' E 003°44'0 0.0
2014-Oct-01 05:33N 51°05' E 003°44'0 0.0
2014-Oct-01 04:34N 51°05' E 003°44'0 0.0
2014-Oct-01 03:34N 51°05' E 003°44'0 0.0
2014-Oct-01 02:33N 51°05' E 003°44'0 0.0
2014-Oct-01 01:33N 51°05' E 003°44'0 0.0
2014-Oct-01 00:33N 51°05' E 003°44'0 0.0
2014-Sep-30 23:33N 51°05' E 003°44'0 0.0
2014-Sep-30 22:34N 51°05' E 003°44'0 0.0
2014-Sep-30 21:34N 51°05' E 003°44'0 0.0
2014-Sep-30 20:33N 51°05' E 003°44'0 0.0
2014-Sep-30 19:33N 51°05' E 003°44'0 0.0
2014-Sep-30 18:34N 51°05' E 003°44'0 0.0
2014-Sep-30 17:34N 51°05' E 003°44'0 0.0
2014-Sep-30 16:33N 51°05' E 003°44'0 0.0
2014-Sep-30 15:33N 51°05' E 003°44'0 0.0
2014-Sep-30 14:33N 51°05' E 003°44'0 0.4
2014-Sep-30 13:33N 51°05' E 003°44'8 8.3
2014-Sep-30 12:33N 51°13' E 003°48'7 6.6
2014-Sep-30 11:34N 51°20' E 003°49'2 1.8
2014-Sep-30 10:33N 51°21' E 003°47'8 7.6
2014-Sep-30 09:33N 51°25' E 003°37'7 7.1
2014-Sep-30 08:33N 51°25' E 003°26'8 7.7
2014-Sep-30 07:32N 51°24' E 003°13'9 9.4
2014-Sep-30 06:33N 51°23' E 002°58'1010.1
2014-Sep-30 05:33N 51°22' E 002°42'4 4.0
2014-Sep-30 04:34N 51°22' E 002°36'11 9.4
2014-Sep-30 03:24N 51°19' E 002°19'5 6.5
2014-Sep-30 02:33N 51°16' E 002°12'9 7.6
2014-Sep-30 01:23N 51°12' E 001°59'6 7.7
2014-Sep-30 00:33N 51°09' E 001°50'7 7.2
2014-Sep-29 23:33N 51°04' E 001°41'9 6.8
2014-Sep-29 22:11N 50°57' E 001°32'35 7.2
2014-Sep-29 17:19N 50°30' E 000°57'7 8.6
2014-Sep-29 16:30N 50°28' E 000°46'8 8.6
2014-Sep-29 15:33N 50°26' E 000°34'9 8.9
2014-Sep-29 14:30N 50°23' E 000°19'9110.1
2014-Sep-29 05:32N 49°59' W 001°57'14 6.1
2014-Sep-29 03:12N 49°55' W 002°18'187 9.4
2014-Sep-28 07:24N 48°05' W 006°08'1910.2
2014-Sep-28 05:33N 47°48' W 006°20'1110.7
2014-Sep-28 04:30N 47°38' W 006°28'  
2014-Sep-25 16:26N 39°02' W 009°52'25 8.4
2014-Sep-25 13:28N 38°37' W 009°50'42 8.5
2014-Sep-25 08:27N 37°56' W 009°38'8 8.7
2014-Sep-25 07:33N 37°48' W 009°35'9 8.9
2014-Sep-25 06:33N 37°40' W 009°33'9 8.9
2014-Sep-25 05:33N 37°31' W 009°30'9 8.8
2014-Sep-25 04:33N 37°22' W 009°28'10 8.7
2014-Sep-25 03:27N 37°13' W 009°25'207 7.9
2014-Sep-24 01:17N 36°00' W 005°24'5 6.8
2014-Sep-24 00:33N 35°57' W 005°19'3 2.7
2014-Sep-23 23:32N 35°54' W 005°19'0 0.0
2014-Sep-23 22:32N 35°54' W 005°19'0 0.0
2014-Sep-23 21:32N 35°54' W 005°19'0 0.0
2014-Sep-23 20:32N 35°54' W 005°19'0 0.0
2014-Sep-23 19:32N 35°54' W 005°19'0 0.5
2014-Sep-23 18:33N 35°54' W 005°19'  

Dump ship's entire track history